createdAt,value
2018-03-14T00:02:17.956Z,9.27
2018-03-14T00:04:47.655Z,9.02
2018-03-14T00:07:17.128Z,8.15
2018-03-14T00:09:46.475Z,7.72
2018-03-14T00:12:14.883Z,8.65
2018-03-14T00:14:44.889Z,7.43
2018-03-14T00:17:13.993Z,7.87
2018-03-14T00:19:43.095Z,7.55
2018-03-14T00:25:12.511Z,7.87
2018-03-14T00:27:41.667Z,8.45
2018-03-14T00:30:09.997Z,9.20
2018-03-14T00:32:38.363Z,8.07
2018-03-14T00:35:09.742Z,8.75
2018-03-14T00:37:38.140Z,9.13
2018-03-14T00:40:06.514Z,9.95
2018-03-14T00:42:36.860Z,9.80
2018-03-14T00:45:05.209Z,9.30
2018-03-14T00:47:33.545Z,9.18
2018-03-14T00:50:03.076Z,9.10
2018-03-14T00:52:34.433Z,9.82
2018-03-14T00:55:05.132Z,9.55
2018-03-14T00:57:33.524Z,10.15
2018-03-14T01:00:01.826Z,9.23
2018-03-14T01:02:31.893Z,9.07
2018-03-14T01:05:00.289Z,9.40
2018-03-14T01:07:28.642Z,9.20
2018-03-14T01:09:58.854Z,9.27
2018-03-14T01:12:27.623Z,10.40
2018-03-14T01:14:55.981Z,9.02
2018-03-14T01:17:26.543Z,10.07
2018-03-14T01:19:55.692Z,10.50
2018-03-14T01:22:24.147Z,9.80
2018-03-14T01:24:54.018Z,9.85
2018-03-14T01:27:23.100Z,11.10
2018-03-14T01:29:51.443Z,10.80
2018-03-14T01:32:20.236Z,11.47
2018-03-14T01:34:49.449Z,11.48
2018-03-14T01:37:20.235Z,11.88
2018-03-14T01:39:48.544Z,11.43
2018-03-14T01:42:16.874Z,11.38
2018-03-14T01:44:45.713Z,11.98
2018-03-14T01:47:14.841Z,12.40
2018-03-14T01:49:43.942Z,11.05
2018-03-14T01:52:13.344Z,10.30
2018-03-14T01:54:41.658Z,9.88
2018-03-14T01:57:10.006Z,8.85
2018-03-14T01:59:39.955Z,8.32
2018-03-14T02:02:08.314Z,8.65
2018-03-14T02:04:36.638Z,8.73
2018-03-14T02:07:05.799Z,9.98
2018-03-14T02:09:34.889Z,10.20
2018-03-14T02:12:04.003Z,9.80
2018-03-14T02:14:33.014Z,10.80
2018-03-14T02:17:01.355Z,10.10
2018-03-14T02:19:29.681Z,11.68
2018-03-14T02:21:58.445Z,11.60
2018-03-14T02:24:27.566Z,10.68
2018-03-14T02:26:55.904Z,11.40
2018-03-14T02:29:25.598Z,9.48
2018-03-14T02:31:53.953Z,10.35
2018-03-14T02:34:22.274Z,11.23
2018-03-14T02:37:03.013Z,10.77
2018-03-14T02:39:33.381Z,10.50
2018-03-14T02:42:01.703Z,9.88
2018-03-14T02:44:31.403Z,10.52
2018-03-14T02:46:59.779Z,10.10
2018-03-14T02:49:28.163Z,9.45
2018-03-14T02:51:57.724Z,10.25
2018-03-14T02:54:26.042Z,10.30
2018-03-14T02:56:54.377Z,10.02
2018-03-14T02:59:23.047Z,11.10
2018-03-14T03:01:52.160Z,10.27
2018-03-14T03:04:20.469Z,10.57
2018-03-14T03:06:50.156Z,10.15
2018-03-14T03:09:18.490Z,10.15
2018-03-14T03:11:46.864Z,9.60
2018-03-14T03:14:16.460Z,12.40
2018-03-14T03:16:44.783Z,10.10
2018-03-14T03:19:13.144Z,11.50
2018-03-14T03:21:42.154Z,11.12
2018-03-14T03:24:10.475Z,10.10
2018-03-14T03:26:42.851Z,11.63
2018-03-14T03:29:12.783Z,11.02
2018-03-14T03:31:41.112Z,11.27
2018-03-14T03:34:09.415Z,12.70
2018-03-14T03:36:39.718Z,11.30
2018-03-14T03:39:08.835Z,10.30
2018-03-14T03:41:39.978Z,11.57
2018-03-14T03:44:08.282Z,11.15
2018-03-14T03:46:36.601Z,11.82
2018-03-14T03:49:05.664Z,12.65
2018-03-14T03:51:34.716Z,11.85
2018-03-14T03:54:03.227Z,10.52
2018-03-14T03:56:33.272Z,12.02
2018-03-14T03:59:01.651Z,12.23
2018-03-14T04:01:30.720Z,11.57
2018-03-14T04:04:00.040Z,10.60
2018-03-14T04:06:29.275Z,10.35
2018-03-14T04:08:58.666Z,11.57
2018-03-14T04:11:27.687Z,12.05
2018-03-14T04:13:56.006Z,12.30
2018-03-14T04:16:24.299Z,11.07
2018-03-14T04:18:53.526Z,11.32
2018-03-14T04:21:21.821Z,11.45
2018-03-14T04:23:50.173Z,13.23
2018-03-14T04:26:20.463Z,11.60
2018-03-14T04:28:48.818Z,12.52
2018-03-14T04:31:18.853Z,12.40
2018-03-14T04:33:48.323Z,12.85
2018-03-14T04:36:16.658Z,12.00
2018-03-14T04:38:44.947Z,12.57
2018-03-14T04:41:14.296Z,12.80
2018-03-14T04:43:43.987Z,13.18
2018-03-14T04:46:13.079Z,11.93
2018-03-14T04:48:41.884Z,11.02
2018-03-14T04:51:11.036Z,11.73
2018-03-14T04:53:39.437Z,11.15
2018-03-14T04:56:08.777Z,11.70
2018-03-14T04:58:37.162Z,9.75
2018-03-14T05:01:06.481Z,10.93
2018-03-14T05:03:35.227Z,12.20
2018-03-14T05:06:03.582Z,12.68
2018-03-14T05:08:31.920Z,10.73
2018-03-14T05:11:00.691Z,10.30
2018-03-14T05:13:29.005Z,10.30
2018-03-14T05:15:58.897Z,10.70
2018-03-14T05:18:28.954Z,10.20
2018-03-14T05:20:57.300Z,10.85
2018-03-14T05:23:26.382Z,12.05
2018-03-14T05:25:55.123Z,11.12
2018-03-14T05:28:23.496Z,11.27
2018-03-14T05:30:51.839Z,11.90
2018-03-14T05:33:21.401Z,12.23
2018-03-14T05:35:50.465Z,12.37
2018-03-14T05:38:19.513Z,13.70
2018-03-14T05:40:48.791Z,12.40
2018-03-14T05:43:17.897Z,13.95
2018-03-14T05:45:47.358Z,14.30
2018-03-14T05:48:16.176Z,13.50
2018-03-14T05:50:45.276Z,14.15
2018-03-14T05:53:13.646Z,14.57
2018-03-14T05:55:43.170Z,15.07
2018-03-14T05:58:12.370Z,13.55
2018-03-14T06:00:40.683Z,13.88
2018-03-14T06:03:10.074Z,12.40
2018-03-14T06:05:39.189Z,13.00
2018-03-14T06:08:07.506Z,12.40
2018-03-14T06:10:36.248Z,13.07
2018-03-14T06:13:04.600Z,12.55
2018-03-14T06:15:33.692Z,10.27
2018-03-14T06:18:03.561Z,10.48
2018-03-14T06:20:31.906Z,8.60
2018-03-14T06:23:00.198Z,7.97
2018-03-14T06:25:29.293Z,6.87
2018-03-14T06:27:58.420Z,9.20
2018-03-14T06:30:26.724Z,9.25
2018-03-14T06:32:55.070Z,8.25
2018-03-14T06:35:25.580Z,8.57
2018-03-14T06:37:54.457Z,8.48
2018-03-14T06:40:22.739Z,8.45
2018-03-14T06:42:53.210Z,8.45
2018-03-14T06:45:24.752Z,8.35
2018-03-14T06:47:55.556Z,8.10
2018-03-14T06:50:24.266Z,8.80
2018-03-14T06:52:52.716Z,7.97
2018-03-14T06:55:25.504Z,8.40
2018-03-14T06:57:53.912Z,8.30
2018-03-14T07:00:34.616Z,8.73
2018-03-14T07:03:15.310Z,9.85
2018-03-14T07:05:55.823Z,9.70
2018-03-14T07:08:24.121Z,9.75
2018-03-14T07:10:52.436Z,11.00
2018-03-14T07:13:21.882Z,10.68
2018-03-14T07:15:50.175Z,10.82
2018-03-14T07:18:19.264Z,12.80
2018-03-14T07:20:49.340Z,11.90
2018-03-14T07:23:17.838Z,10.07
2018-03-14T07:25:46.177Z,12.30
2018-03-14T07:28:15.975Z,10.95
2018-03-14T07:30:44.278Z,11.80
2018-03-14T07:33:12.644Z,11.20
2018-03-14T07:35:41.634Z,11.48
2018-03-14T07:38:09.913Z,12.05
2018-03-14T07:40:38.385Z,12.55
2018-03-14T07:43:07.530Z,11.77
2018-03-14T07:45:35.826Z,11.57
2018-03-14T07:48:05.504Z,11.60
2018-03-14T07:50:35.851Z,11.88
2018-03-14T07:53:04.940Z,11.05
2018-03-14T07:55:33.996Z,11.10
2018-03-14T07:58:03.430Z,11.23
2018-03-14T08:00:31.723Z,12.15
2018-03-14T08:03:00.809Z,10.80
2018-03-14T08:05:30.248Z,11.90
2018-03-14T08:07:58.689Z,12.02
2018-03-14T08:10:27.051Z,10.70
2018-03-14T08:12:56.058Z,12.30
2018-03-14T08:15:24.361Z,12.20
2018-03-14T08:17:52.671Z,10.55
2018-03-14T08:20:22.276Z,10.60
2018-03-14T08:22:50.652Z,12.02
2018-03-14T08:25:18.992Z,11.80
2018-03-14T08:27:48.180Z,11.53
2018-03-14T08:30:16.592Z,10.43
2018-03-14T08:32:45.030Z,11.15
2018-03-14T08:35:14.198Z,13.75
2018-03-14T08:37:43.298Z,12.23
2018-03-14T08:40:11.776Z,10.55
2018-03-14T08:42:41.733Z,11.45
2018-03-14T08:45:11.511Z,10.90
2018-03-14T08:47:40.893Z,10.10
2018-03-14T08:50:13.985Z,9.18
2018-03-14T08:52:44.905Z,8.30
2018-03-14T08:55:13.367Z,8.95
2018-03-14T08:57:44.636Z,8.75
2018-03-14T09:00:14.091Z,9.35
2018-03-14T09:02:44.472Z,8.55
2018-03-14T09:05:12.986Z,9.73
2018-03-14T09:07:43.302Z,9.23
2018-03-14T09:10:11.740Z,9.33
2018-03-14T09:12:40.219Z,8.83
2018-03-14T09:15:09.409Z,8.63
2018-03-14T09:17:38.608Z,8.07
2018-03-14T09:20:06.988Z,9.80
2018-03-14T09:22:35.921Z,9.43
2018-03-14T09:25:04.206Z,9.10
2018-03-14T09:27:33.483Z,8.83
2018-03-14T09:30:03.400Z,9.30
2018-03-14T09:32:31.800Z,9.23
2018-03-14T09:35:00.254Z,8.93
2018-03-14T09:37:28.974Z,8.47
2018-03-14T09:39:58.114Z,8.40
2018-03-14T09:42:26.987Z,8.90
2018-03-14T09:44:57.595Z,9.13
2018-03-14T09:47:26.779Z,9.33
2018-03-14T09:49:55.172Z,8.83
2018-03-14T09:52:24.721Z,9.13
2018-03-14T09:54:54.797Z,9.70
2018-03-14T09:57:23.103Z,8.80
2018-03-14T09:59:54.459Z,9.30
2018-03-14T10:02:23.536Z,9.47
2018-03-14T10:04:51.829Z,9.47
2018-03-14T10:07:21.143Z,8.90
2018-03-14T10:09:50.158Z,9.03
2018-03-14T10:12:18.967Z,9.40
2018-03-14T10:14:48.522Z,8.63
2018-03-14T10:17:19.028Z,10.00
2018-03-14T10:19:47.461Z,9.47
2018-03-14T10:22:17.242Z,8.90
2018-03-14T10:24:45.540Z,9.07
2018-03-14T10:27:14.616Z,9.27
2018-03-14T10:29:44.257Z,8.90
2018-03-14T10:32:13.874Z,8.77
2018-03-14T10:34:42.447Z,9.30
2018-03-14T10:37:11.825Z,9.90
2018-03-14T10:39:40.093Z,9.13
2018-03-14T10:42:08.420Z,9.33
2018-03-14T10:44:38.344Z,8.83
2018-03-14T10:47:06.641Z,9.37
2018-03-14T10:49:35.769Z,8.60
2018-03-14T10:52:05.167Z,8.47
2018-03-14T10:54:33.502Z,9.73
2018-03-14T10:57:03.044Z,9.20
2018-03-14T10:59:33.241Z,9.80
2018-03-14T11:02:07.634Z,9.00
2018-03-14T11:04:36.326Z,8.43
2018-03-14T11:07:04.627Z,8.03
2018-03-14T11:09:32.928Z,9.13
2018-03-14T11:12:02.742Z,10.13
2018-03-14T11:14:31.791Z,8.40
2018-03-14T11:17:00.065Z,7.40
2018-03-14T11:19:29.689Z,7.73
2018-03-14T11:21:57.986Z,8.37
2018-03-14T11:24:26.374Z,8.00
2018-03-14T11:26:55.813Z,7.57
2018-03-14T11:29:24.861Z,7.30
2018-03-14T11:31:53.156Z,7.70
2018-03-14T11:34:22.773Z,7.60
2018-03-14T11:36:51.129Z,7.07
2018-03-14T11:39:20.179Z,7.33
2018-03-14T11:41:52.227Z,7.60
2018-03-14T11:44:20.538Z,7.47
2018-03-14T11:46:49.581Z,6.33
2018-03-14T11:49:19.866Z,7.27
2018-03-14T11:51:48.945Z,7.23
2018-03-14T11:54:17.259Z,7.40
2018-03-14T11:56:46.418Z,7.07
2018-03-14T11:59:16.435Z,6.57
2018-03-14T12:01:45.508Z,7.23
2018-03-14T12:04:14.810Z,6.63
2018-03-14T12:06:43.115Z,6.83
2018-03-14T12:09:11.408Z,5.90
2018-03-14T12:11:41.161Z,5.77
2018-03-14T12:14:09.466Z,7.10
2018-03-14T12:16:37.762Z,7.43
2018-03-14T12:19:07.187Z,7.87
2018-03-14T12:21:35.473Z,7.33
2018-03-14T12:24:03.770Z,8.20
2018-03-14T12:26:33.713Z,8.10
2018-03-14T12:29:02.006Z,7.70
2018-03-14T12:31:30.290Z,6.80
2018-03-14T12:33:59.652Z,6.80
2018-03-14T12:36:27.933Z,6.80
2018-03-14T12:38:56.200Z,7.03
2018-03-14T12:41:25.822Z,7.13
2018-03-14T12:43:54.909Z,6.70
2018-03-14T12:46:23.184Z,6.13
2018-03-14T12:48:52.406Z,6.63
2018-03-14T12:51:20.702Z,6.07
2018-03-14T12:53:49.745Z,6.53
2018-03-14T12:56:19.827Z,5.60
2018-03-14T12:58:48.237Z,6.10
2018-03-14T13:01:17.946Z,5.70
2018-03-14T13:03:47.079Z,5.50
2018-03-14T13:06:16.344Z,5.30
2018-03-14T13:08:45.620Z,5.13
2018-03-14T13:11:15.446Z,6.13
2018-03-14T13:13:44.562Z,6.03
2018-03-14T13:16:12.847Z,6.00
2018-03-14T13:18:42.304Z,5.90
2018-03-14T13:21:10.634Z,5.27
2018-03-14T13:23:38.922Z,5.87
2018-03-14T13:26:08.677Z,5.53
2018-03-14T13:28:36.996Z,5.30
2018-03-14T13:31:05.291Z,5.07
2018-03-14T13:33:34.470Z,5.47
2018-03-14T13:36:02.760Z,5.30
2018-03-14T13:38:31.337Z,5.20
2018-03-14T13:41:00.743Z,6.03
2018-03-14T13:45:52.688Z,5.40
2018-03-14T13:48:21.876Z,5.80
2018-03-14T13:50:50.179Z,5.17
2018-03-14T13:53:18.490Z,5.57
2018-03-14T13:55:48.081Z,5.03
2018-03-14T13:58:17.197Z,5.50
2018-03-14T14:00:46.246Z,5.90
2018-03-14T14:03:17.221Z,5.60
2018-03-14T14:05:45.599Z,6.20
2018-03-14T14:08:14.650Z,5.87
2018-03-14T14:10:45.005Z,5.10
2018-03-14T14:13:13.313Z,5.40
2018-03-14T14:15:42.357Z,5.40
2018-03-14T14:18:11.487Z,5.73
2018-03-14T14:20:39.773Z,6.20
2018-03-14T14:23:08.092Z,5.30
2018-03-14T14:25:39.295Z,6.50
2018-03-14T14:28:07.710Z,5.43
2018-03-14T14:30:37.240Z,6.47
2018-03-14T14:33:06.714Z,5.80
2018-03-14T14:35:35.006Z,6.20
2018-03-14T14:38:04.083Z,6.10
2018-03-14T14:40:34.112Z,5.80
2018-03-14T14:43:02.451Z,5.80
2018-03-14T14:45:30.765Z,5.70
2018-03-14T14:47:59.998Z,7.20
2018-03-14T14:50:29.050Z,6.10
2018-03-14T14:52:57.357Z,6.60
2018-03-14T14:55:27.273Z,6.97
2018-03-14T14:57:55.553Z,6.10
2018-03-14T15:00:23.879Z,5.67
2018-03-14T15:02:53.283Z,5.53
2018-03-14T15:05:23.039Z,6.60
2018-03-14T15:07:51.377Z,6.37
2018-03-14T15:10:21.271Z,6.10
2018-03-14T15:12:50.339Z,6.17
2018-03-14T15:15:18.675Z,6.50
2018-03-14T15:17:47.869Z,5.80
2018-03-14T15:20:16.180Z,6.63
2018-03-14T15:22:44.498Z,6.43
2018-03-14T15:25:14.086Z,6.10
2018-03-14T15:27:42.434Z,6.20
2018-03-14T15:30:10.818Z,5.90
2018-03-14T15:32:40.204Z,6.23
2018-03-14T15:35:09.269Z,5.77
2018-03-14T15:37:37.581Z,6.70
2018-03-14T15:40:06.908Z,6.37
2018-03-14T15:42:35.976Z,6.10
2018-03-14T15:45:04.274Z,5.83
2018-03-14T15:47:33.965Z,6.17
2018-03-14T15:50:02.275Z,6.03
2018-03-14T15:52:31.371Z,5.67
2018-03-14T15:55:00.855Z,5.90
2018-03-14T15:57:30.038Z,5.33
2018-03-14T15:59:58.332Z,5.60
2018-03-14T16:02:27.734Z,4.93
2018-03-14T16:04:56.864Z,5.70
2018-03-14T16:07:26.550Z,4.77
2018-03-14T16:09:55.741Z,5.83
2018-03-14T16:12:24.019Z,5.97
2018-03-14T16:14:52.332Z,5.63
2018-03-14T16:17:21.498Z,5.57
2018-03-14T16:19:50.166Z,5.20
2018-03-14T16:22:18.472Z,6.50
2018-03-14T16:24:47.590Z,7.17
2018-03-14T16:27:15.909Z,5.80
2018-03-14T16:29:44.195Z,6.90
2018-03-14T16:32:13.312Z,6.27
2018-03-14T16:34:41.596Z,6.27
2018-03-14T16:37:09.902Z,7.40
2018-03-14T16:39:38.932Z,6.20
2018-03-14T16:42:07.227Z,6.47
2018-03-14T16:44:36.299Z,7.97
2018-03-14T16:47:10.628Z,7.33
2018-03-14T16:49:38.936Z,6.77
2018-03-14T16:52:08.376Z,6.57
2018-03-14T16:54:36.668Z,6.70
2018-03-14T16:57:04.951Z,7.90
2018-03-14T16:59:34.322Z,7.37
2018-03-14T17:02:02.615Z,7.27
2018-03-14T17:04:30.884Z,8.20
2018-03-14T17:07:00.263Z,7.47
2018-03-14T17:09:30.651Z,7.80
2018-03-14T17:11:59.611Z,7.53
2018-03-14T17:14:27.884Z,8.03
2018-03-14T17:16:56.193Z,7.37
2018-03-14T17:19:25.323Z,8.27
2018-03-14T17:21:53.615Z,8.83
2018-03-14T17:24:22.003Z,8.93
2018-03-14T17:26:51.304Z,8.23
2018-03-14T17:29:19.604Z,8.67
2018-03-14T17:31:47.899Z,7.67
2018-03-14T17:34:17.227Z,8.93
2018-03-14T17:36:45.539Z,9.60
2018-03-14T17:39:13.836Z,10.33
2018-03-14T17:41:43.479Z,10.40
2018-03-14T17:44:11.819Z,9.05
2018-03-14T17:46:40.134Z,9.50
2018-03-14T17:49:10.272Z,10.07
2018-03-14T17:51:38.639Z,9.43
2018-03-14T17:54:06.967Z,9.18
2018-03-14T17:56:35.946Z,8.65
2018-03-14T17:59:04.240Z,9.50
2018-03-14T18:01:32.546Z,9.38
2018-03-14T18:04:01.750Z,10.52
2018-03-14T18:06:30.069Z,9.07
2018-03-14T18:08:59.760Z,9.80
2018-03-14T18:11:30.632Z,9.77
2018-03-14T18:13:59.984Z,9.90
2018-03-14T18:16:28.299Z,11.15
2018-03-14T18:18:56.620Z,9.38
2018-03-14T18:21:25.664Z,9.05
2018-03-14T18:23:53.971Z,9.60
2018-03-14T18:26:23.031Z,10.35
2018-03-14T18:28:51.754Z,10.27
2018-03-14T18:31:20.831Z,10.90
2018-03-14T18:33:49.928Z,9.60
2018-03-14T18:36:19.446Z,9.95
2018-03-14T18:38:48.529Z,10.73
2018-03-14T18:41:16.820Z,10.57
2018-03-14T18:43:46.956Z,10.85
2018-03-14T18:46:16.027Z,11.80
2018-03-14T18:48:44.340Z,11.75
2018-03-14T18:51:13.831Z,12.65
2018-03-14T18:53:42.137Z,12.25
2018-03-14T18:56:10.466Z,13.25
2018-03-14T18:58:39.500Z,13.20
2018-03-14T19:01:07.875Z,14.07
2018-03-14T19:03:36.238Z,12.77
2018-03-14T19:06:05.724Z,12.77
2018-03-14T19:08:34.237Z,12.05
2018-03-14T19:11:03.758Z,12.75
2018-03-14T19:13:33.879Z,12.30
2018-03-14T19:16:02.227Z,13.35
2018-03-14T19:18:30.546Z,14.38
2018-03-14T19:21:00.308Z,13.73
2018-03-14T19:23:28.615Z,14.63
2018-03-14T19:25:57.015Z,14.87
2018-03-14T19:28:26.491Z,14.20
2018-03-14T19:30:54.827Z,13.10
2018-03-14T19:33:23.970Z,13.75
2018-03-14T19:35:52.931Z,13.55
2018-03-14T19:38:21.227Z,14.32
2018-03-14T19:40:50.273Z,14.27
2018-03-14T19:43:19.393Z,15.63
2018-03-14T19:45:47.677Z,16.83
2018-03-14T19:48:16.001Z,13.95
2018-03-14T19:50:45.566Z,15.88
2018-03-14T19:53:14.651Z,16.90
2018-03-14T19:55:42.990Z,15.27
2018-03-14T19:58:12.618Z,15.98
2018-03-14T20:00:41.048Z,15.20
2018-03-14T20:03:09.336Z,16.45
2018-03-14T20:05:39.133Z,14.73
2018-03-14T20:08:07.456Z,15.70
2018-03-14T20:10:35.778Z,16.30
2018-03-14T20:13:04.786Z,16.80
2018-03-14T20:15:34.727Z,15.82
2018-03-14T20:18:03.053Z,15.80
2018-03-14T20:20:33.056Z,16.55
2018-03-14T20:23:01.601Z,18.37
2018-03-14T20:25:30.091Z,18.73
2018-03-14T20:27:59.202Z,18.05
2018-03-14T20:30:27.552Z,17.40
2018-03-14T20:32:55.906Z,16.42
2018-03-14T20:35:24.973Z,16.77
2018-03-14T20:37:54.104Z,18.85
2018-03-14T20:40:24.013Z,18.50
2018-03-14T20:42:53.904Z,17.77
2018-03-14T20:45:22.247Z,18.67
2018-03-14T20:47:51.357Z,18.90
2018-03-14T20:50:20.118Z,19.80
2018-03-14T20:52:48.551Z,18.70
2018-03-14T20:55:16.863Z,20.35
2018-03-14T20:57:46.709Z,20.58
2018-03-14T21:00:15.236Z,20.88
2018-03-14T21:02:43.708Z,21.48
2018-03-14T21:05:14.382Z,20.90
2018-03-14T21:07:42.731Z,21.95
2018-03-14T21:10:11.264Z,24.80
2018-03-14T21:12:40.672Z,23.23
2018-03-14T21:15:09.993Z,24.77
2018-03-14T21:17:39.780Z,22.92
2018-03-14T21:20:09.348Z,24.73
2018-03-14T21:22:37.680Z,25.65
2018-03-14T21:25:06.039Z,26.37
2018-03-14T21:29:58.139Z,26.00
2018-03-14T21:32:26.641Z,24.92
2018-03-14T21:34:55.186Z,28.60
2018-03-14T21:37:24.227Z,28.67
2018-03-14T21:39:52.541Z,26.27
2018-03-14T21:42:22.052Z,25.30
2018-03-14T21:44:51.007Z,23.30
2018-03-14T21:47:19.383Z,23.83
2018-03-14T21:49:47.811Z,26.00
2018-03-14T21:52:16.518Z,25.58
2018-03-14T21:54:45.665Z,26.27
2018-03-14T21:57:19.515Z,25.95
2018-03-14T21:59:48.154Z,25.08
2018-03-14T22:02:17.269Z,24.35
2018-03-14T22:04:47.530Z,24.52
2018-03-14T22:07:15.875Z,23.30
2018-03-14T22:09:44.199Z,29.10
2018-03-14T22:12:13.907Z,28.45
2018-03-14T22:14:44.247Z,29.12
2018-03-14T22:17:12.645Z,29.08
2018-03-14T22:19:42.997Z,27.73
2018-03-14T22:22:11.361Z,29.50
2018-03-14T22:24:39.660Z,27.90
2018-03-14T22:27:08.817Z,30.77
2018-03-14T22:29:38.721Z,25.80
2018-03-14T22:32:07.352Z,29.27
2018-03-14T22:34:36.743Z,29.23
2018-03-14T22:37:05.903Z,29.25
2018-03-14T22:39:35.219Z,29.65
2018-03-14T22:42:04.229Z,32.17
2018-03-14T22:44:33.346Z,31.37
2018-03-14T22:47:03.163Z,33.63
2018-03-14T22:49:32.094Z,31.90
2018-03-14T22:52:01.429Z,29.40
2018-03-14T22:54:30.527Z,32.30
2018-03-14T22:56:59.980Z,35.10
2018-03-14T22:59:29.026Z,33.95
2018-03-14T23:01:57.339Z,32.65
2018-03-14T23:04:27.231Z,30.73
2018-03-14T23:07:12.393Z,27.08
2018-03-14T23:09:41.509Z,26.37
2018-03-14T23:12:09.883Z,26.95
2018-03-14T23:14:38.208Z,30.45
2018-03-14T23:17:08.076Z,31.25
2018-03-14T23:19:36.418Z,30.85
2018-03-14T23:22:06.185Z,26.73
2018-03-14T23:24:35.556Z,25.37
2018-03-14T23:27:04.126Z,26.85
2018-03-14T23:29:32.450Z,31.67
2018-03-14T23:32:01.914Z,35.42
2018-03-14T23:34:30.275Z,32.10
2018-03-14T23:36:59.393Z,29.45
2018-03-14T23:39:28.946Z,28.80
2018-03-14T23:41:57.260Z,28.38
2018-03-14T23:44:25.608Z,29.50
2018-03-14T23:46:54.395Z,28.55
2018-03-14T23:49:22.735Z,27.95
2018-03-14T23:51:51.815Z,28.40
2018-03-14T23:54:21.164Z,27.10
2018-03-14T23:56:49.527Z,27.80
2018-03-14T23:59:17.863Z,29.10
